Aérodrome :
LOGIN :

S'inscrire | Disclaimer

   EN    FR    IT 

 










Légende :    VFR   VFR Marginal   IFR   IFR Intensif   IFR Très Intensif
Visi : 
Plafond : 
>= 8 km
>= 3000ft
5 à 8 km
1000 à 3000 ft
1500m à 5 km
500 à 1000 ft
800 à 1500m
200 à 500 ft
< 800m
< 200 ft
Symboles :   Orages  Brouillard  Fortes neiges  Fortes précipitations  Vent > 20 kt
SIGMETs :   Divers  Orages  Givrage  Turbulence  Onde Orograph.  Cendres Volcan.






- Altitude de l'aérodrome : 392 ft
- Code IATA : CDG


LFPG - Paris-Aeroport Charles De Gaulle

DERNIER METAR :
  • 131100Z 27017KT 8000 -SHRA SCT019 BKN029 06/04 Q0985 TEMPO 23020G35KT 3000 SHRA SCT015CB

METARs EXPIRÉS :
  • 131030Z 27020G31KT 9999 -SHRA SCT018 BKN030 06/04 Q0985 TEMPO 23020G35KT 3000 SHRA SCT015CB
  • 131000Z 27016KT 9999 -SHRA SCT015 FEW020TCU BKN030 06/04 Q0984 TEMPO 23020G35KT 3000 SHRA SCT015CB
  • 130930Z 27018KT 6000 -RA SCT015 BKN033 06/04 Q0983 TEMPO 23020G35KT 3000 SHRA SCT015CB
  • 130900Z 25019KT 8000 -RA SCT017 BKN033 06/03 Q0982 TEMPO 23020G35KT 3000 SHRA SCT015CB
  • 130830Z 26019KT 9999 FEW014 SCT028 BKN033 06/03 Q0982 TEMPO 23020G35KT 3000 SHRA SCT015CB

TAF TAF LFPG
Valide du 13 à 06h jusqu'au 14 à 12h UTC


130500Z 1306/1412 27020G30KT 9999 BKN030 TX11/1401Z TN06/1306Z
TEMPO 1306/1314 SCT015TCU
PROB30
TEMPO 1306/1311 3000 SHRA SCT015CB BKN020
TEMPO 1312/1315 27025G40KT
TEMPO 1320/1323 22015KT 3000 RA BKN012
PROB40
TEMPO 1401/1404 26025G45KT
ATIS : +33 1 48 62 10 92



MET'MAP, la Météo Aéronautique d'un coup d'oeil ! - Copyright ORBIFLY Décembre 2007 - Disclaimer

ORBIFLY MET'MAP TEAM :

Programmation & Développement : Alexandra Zaïnal
Sur une idée originale de : Baudouin d'Aumeries
Assistance à la programmation : Marc-Olivier Méhu
Soutien technique & logistique : Manuel Goepfert

Contact : metmap@orbifly.com




SOURCES & CREDITS :

   NOAA